createdAt,value
2018-09-11T00:00:51.010Z,13.28
2018-09-11T00:01:55.270Z,13.58
2018-09-11T00:02:59.725Z,23.80
2018-09-11T00:04:04.776Z,21.82
2018-09-11T00:05:08.819Z,11.78
2018-09-11T00:06:13.333Z,12.43
2018-09-11T00:07:17.662Z,11.18
2018-09-11T00:08:23.183Z,14.73
2018-09-11T00:09:27.430Z,11.30
2018-09-11T00:10:31.566Z,12.43
2018-09-11T00:11:35.663Z,13.88
2018-09-11T00:12:41.163Z,9.65
2018-09-11T00:13:45.630Z,10.00
2018-09-11T00:14:49.825Z,9.68
2018-09-11T00:15:54.754Z,12.68
2018-09-11T00:16:59.775Z,11.38
2018-09-11T00:18:03.864Z,14.40
2018-09-11T00:19:08.108Z,24.60
2018-09-11T00:20:12.669Z,15.20
2018-09-11T00:21:17.273Z,9.30
2018-09-11T00:22:22.019Z,12.05
2018-09-11T00:23:26.245Z,8.53
2018-09-11T00:24:30.650Z,15.25
2018-09-11T00:25:34.781Z,11.97
2018-09-11T00:26:38.828Z,9.38
2018-09-11T00:27:42.808Z,13.53
2018-09-11T00:28:46.876Z,10.75
2018-09-11T00:29:51.261Z,12.35
2018-09-11T00:30:56.045Z,9.85
2018-09-11T00:32:00.093Z,16.87
2018-09-11T00:33:04.837Z,12.65
2018-09-11T00:34:09.314Z,9.15
2018-09-11T00:35:13.628Z,13.20
2018-09-11T00:36:17.950Z,11.90
2018-09-11T00:37:23.666Z,14.95
2018-09-11T00:38:28.082Z,16.52
2018-09-11T00:39:32.235Z,13.22
2018-09-11T00:40:36.367Z,11.30
2018-09-11T00:41:40.750Z,16.45
2018-09-11T00:42:45.257Z,13.80
2018-09-11T00:43:49.510Z,19.05
2018-09-11T00:44:54.114Z,15.50
2018-09-11T00:45:58.454Z,12.33
2018-09-11T00:47:02.666Z,13.00
2018-09-11T00:48:06.801Z,18.07
2018-09-11T00:49:11.289Z,12.65
2018-09-11T00:50:15.394Z,10.03
2018-09-11T00:51:19.461Z,12.95
2018-09-11T00:52:24.029Z,10.03
2018-09-11T00:53:28.114Z,12.47
2018-09-11T00:54:32.453Z,16.42
2018-09-11T00:55:36.786Z,15.10
2018-09-11T00:56:41.022Z,22.62
2018-09-11T00:57:45.293Z,9.38
2018-09-11T00:58:49.417Z,13.78
2018-09-11T00:59:53.450Z,8.83
2018-09-11T01:00:57.517Z,11.22
2018-09-11T01:02:01.801Z,16.70
2018-09-11T01:03:06.419Z,10.25
2018-09-11T01:04:10.850Z,10.80
2018-09-11T01:05:15.233Z,11.53
2018-09-11T01:06:19.270Z,11.65
2018-09-11T01:07:23.438Z,12.60
2018-09-11T01:08:27.730Z,7.85
2018-09-11T01:09:32.125Z,10.93
2018-09-11T01:10:37.267Z,10.93
2018-09-11T01:11:41.466Z,16.93
2018-09-11T01:12:45.630Z,9.63
2018-09-11T01:13:49.982Z,11.80
2018-09-11T01:14:54.487Z,12.88
2018-09-11T01:15:58.559Z,16.40
2018-09-11T01:17:02.853Z,11.05
2018-09-11T01:18:07.157Z,10.08
2018-09-11T01:19:13.927Z,11.78
2018-09-11T01:20:18.291Z,18.23
2018-09-11T01:21:22.390Z,14.45
2018-09-11T01:22:27.334Z,21.05
2018-09-11T01:23:31.701Z,17.40
2018-09-11T01:24:35.738Z,20.62
2018-09-11T01:25:40.256Z,15.63
2018-09-11T01:26:44.698Z,26.45
2018-09-11T01:27:48.847Z,20.02
2018-09-11T01:28:52.865Z,20.43
2018-09-11T01:29:56.968Z,13.95
2018-09-11T01:31:00.987Z,13.35
2018-09-11T01:32:05.191Z,18.15
2018-09-11T01:33:09.374Z,16.48
2018-09-11T01:34:13.370Z,9.63
2018-09-11T01:35:17.558Z,14.90
2018-09-11T01:36:22.150Z,10.18
2018-09-11T01:37:26.234Z,15.60
2018-09-11T01:38:30.285Z,12.18
2018-09-11T01:39:34.502Z,13.60
2018-09-11T01:40:38.624Z,11.53
2018-09-11T01:41:42.747Z,14.40
2018-09-11T01:42:47.163Z,11.95
2018-09-11T01:43:51.733Z,9.48
2018-09-11T01:44:56.305Z,10.98
2018-09-11T01:46:00.411Z,10.03
2018-09-11T01:47:04.677Z,13.20
2018-09-11T01:48:09.176Z,10.00
2018-09-11T01:49:13.350Z,10.45
2018-09-11T01:50:18.380Z,12.07
2018-09-11T01:51:22.744Z,10.58
2018-09-11T01:52:27.140Z,17.65
2018-09-11T01:53:31.294Z,13.28
2018-09-11T01:54:35.644Z,11.55
2018-09-11T01:55:39.833Z,13.53
2018-09-11T01:56:44.261Z,13.65
2018-09-11T01:57:48.738Z,14.50
2018-09-11T01:58:53.186Z,9.38
2018-09-11T01:59:57.222Z,11.30
2018-09-11T02:01:01.456Z,11.25
2018-09-11T02:02:05.810Z,14.15
2018-09-11T02:03:10.083Z,14.83
2018-09-11T02:04:14.535Z,15.88
2018-09-11T02:05:19.074Z,12.93
2018-09-11T02:06:23.176Z,10.40
2018-09-11T02:07:27.342Z,9.78
2018-09-11T02:08:31.373Z,11.80
2018-09-11T02:09:35.719Z,13.28
2018-09-11T02:10:40.075Z,11.68
2018-09-11T02:11:44.083Z,11.12
2018-09-11T02:12:48.124Z,9.80
2018-09-11T02:13:52.617Z,10.55
2018-09-11T02:14:57.153Z,10.45
2018-09-11T02:16:01.231Z,16.70
2018-09-11T02:17:05.615Z,9.40
2018-09-11T02:18:09.628Z,12.88
2018-09-11T02:19:13.870Z,10.30
2018-09-11T02:20:18.290Z,11.60
2018-09-11T02:21:22.900Z,11.00
2018-09-11T02:22:27.081Z,18.50
2018-09-11T02:23:31.358Z,12.50
2018-09-11T02:24:35.506Z,12.93
2018-09-11T02:25:39.714Z,13.75
2018-09-11T02:26:44.089Z,14.07
2018-09-11T02:27:48.554Z,12.20
2018-09-11T02:28:53.052Z,9.95
2018-09-11T02:29:57.351Z,9.95
2018-09-11T02:31:01.820Z,12.63
2018-09-11T02:32:06.189Z,10.18
2018-09-11T02:33:10.681Z,14.00
2018-09-11T02:34:15.161Z,9.05
2018-09-11T02:35:19.467Z,8.78
2018-09-11T02:36:23.917Z,10.03
2018-09-11T02:37:28.289Z,9.58
2018-09-11T02:38:32.897Z,10.15
2018-09-11T02:39:37.354Z,9.65
2018-09-11T02:40:41.865Z,9.18
2018-09-11T02:41:46.154Z,11.22
2018-09-11T02:42:50.377Z,7.72
2018-09-11T02:43:54.546Z,11.15
2018-09-11T02:44:58.955Z,9.80
2018-09-11T02:46:03.018Z,13.32
2018-09-11T02:47:07.321Z,10.53
2018-09-11T02:48:11.505Z,9.05
2018-09-11T02:49:16.343Z,11.20
2018-09-11T02:50:20.854Z,11.40
2018-09-11T02:51:24.931Z,10.25
2018-09-11T02:52:29.038Z,7.90
2018-09-11T02:53:33.184Z,11.60
2018-09-11T02:54:37.607Z,9.33
2018-09-11T02:55:41.974Z,9.60
2018-09-11T02:56:46.445Z,13.03
2018-09-11T02:57:50.786Z,7.92
2018-09-11T02:58:55.073Z,11.00
2018-09-11T03:00:00.895Z,10.53
2018-09-11T03:01:05.151Z,6.95
2018-09-11T03:02:09.258Z,15.95
2018-09-11T03:03:13.434Z,10.78
2018-09-11T03:04:17.518Z,11.63
2018-09-11T03:05:21.659Z,8.70
2018-09-11T03:06:25.994Z,12.23
2018-09-11T03:07:30.028Z,10.35
2018-09-11T03:08:34.383Z,8.15
2018-09-11T03:09:39.337Z,13.75
2018-09-11T03:10:43.402Z,9.15
2018-09-11T03:11:47.440Z,10.23
2018-09-11T03:12:51.557Z,7.80
2018-09-11T03:13:55.648Z,7.12
2018-09-11T03:14:59.800Z,10.88
2018-09-11T03:16:04.732Z,8.20
2018-09-11T03:17:09.003Z,10.63
2018-09-11T03:18:13.077Z,14.25
2018-09-11T03:19:17.140Z,10.08
2018-09-11T03:20:21.255Z,9.80
2018-09-11T03:21:25.246Z,8.50
2018-09-11T03:22:29.586Z,8.10
2018-09-11T03:23:33.688Z,9.60
2018-09-11T03:24:37.686Z,9.48
2018-09-11T03:25:42.010Z,17.23
2018-09-11T03:26:46.193Z,13.72
2018-09-11T03:27:50.581Z,18.17
2018-09-11T03:28:54.783Z,12.33
2018-09-11T03:30:01.227Z,18.42
2018-09-11T03:31:05.358Z,10.88
2018-09-11T03:32:09.732Z,11.73
2018-09-11T03:33:14.061Z,9.58
2018-09-11T03:34:18.727Z,17.15
2018-09-11T03:35:22.982Z,20.95
2018-09-11T03:36:27.380Z,16.62
2018-09-11T03:37:31.568Z,12.90
2018-09-11T03:40:31.606Z,13.72
2018-09-11T03:41:35.780Z,19.48
2018-09-11T03:42:40.127Z,20.25
2018-09-11T03:43:50.875Z,20.27
2018-09-11T03:44:54.947Z,18.23
2018-09-11T03:45:59.090Z,17.50
2018-09-11T03:47:03.181Z,27.52
2018-09-11T03:48:07.314Z,17.87
2018-09-11T03:49:11.446Z,21.73
2018-09-11T03:50:16.479Z,26.73
2018-09-11T03:51:20.963Z,23.67
2018-09-11T03:52:25.077Z,32.35
2018-09-11T03:53:29.085Z,20.60
2018-09-11T03:54:33.143Z,33.20
2018-09-11T03:55:37.346Z,29.02
2018-09-11T03:56:41.796Z,23.27
2018-09-11T03:57:45.857Z,17.12
2018-09-11T03:58:50.247Z,25.88
2018-09-11T03:59:54.276Z,20.62
2018-09-11T04:00:58.374Z,18.00
2018-09-11T04:02:02.573Z,42.67
2018-09-11T04:03:06.765Z,25.88
2018-09-11T04:04:10.905Z,20.60
2018-09-11T04:05:15.300Z,35.95
2018-09-11T04:06:19.382Z,17.70
2018-09-11T04:07:23.428Z,16.85
2018-09-11T04:08:27.547Z,18.20
2018-09-11T04:09:31.621Z,21.85
2018-09-11T04:10:35.698Z,19.37
2018-09-11T04:11:39.998Z,17.85
2018-09-11T04:12:44.270Z,20.85
2018-09-11T04:13:48.477Z,20.72
2018-09-11T04:14:52.598Z,18.42
2018-09-11T04:15:56.650Z,21.80
2018-09-11T04:17:00.680Z,11.33
2018-09-11T04:18:04.936Z,34.08
2018-09-11T04:19:09.061Z,14.47
2018-09-11T04:20:13.127Z,20.27
2018-09-11T04:21:17.635Z,17.42
2018-09-11T04:22:21.707Z,11.68
2018-09-11T04:23:25.782Z,23.62
2018-09-11T04:24:29.794Z,9.35
2018-09-11T04:25:35.061Z,21.93
2018-09-11T04:26:39.305Z,17.40
2018-09-11T04:27:43.315Z,15.20
2018-09-11T04:28:47.660Z,14.65
2018-09-11T04:29:51.665Z,14.65
2018-09-11T04:30:57.596Z,15.25
2018-09-11T04:32:01.713Z,19.07
2018-09-11T04:33:05.838Z,9.85
2018-09-11T04:34:09.964Z,12.75
2018-09-11T04:35:14.155Z,16.73
2018-09-11T04:36:18.268Z,31.25
2018-09-11T04:37:22.729Z,24.10
2018-09-11T04:38:27.126Z,27.02
2018-09-11T04:39:32.063Z,22.62
2018-09-11T04:40:37.082Z,27.22
2018-09-11T04:41:42.197Z,16.60
2018-09-11T04:42:46.311Z,21.87
2018-09-11T04:43:50.500Z,19.35
2018-09-11T04:44:55.365Z,19.73
2018-09-11T04:45:59.612Z,21.85
2018-09-11T04:47:03.685Z,15.28
2018-09-11T04:48:07.751Z,16.60
2018-09-11T04:49:11.814Z,10.03
2018-09-11T04:50:17.946Z,18.15
2018-09-11T04:51:22.145Z,15.35
2018-09-11T04:52:26.335Z,10.60
2018-09-11T04:53:30.428Z,13.13
2018-09-11T04:54:34.547Z,20.35
2018-09-11T04:55:38.903Z,11.22
2018-09-11T04:56:43.083Z,16.55
2018-09-11T04:57:47.134Z,9.40
2018-09-11T04:58:51.375Z,20.37
2018-09-11T04:59:55.427Z,11.03
2018-09-11T05:00:59.835Z,17.62
2018-09-11T05:02:05.506Z,16.48
2018-09-11T05:03:11.414Z,16.32
2018-09-11T05:04:15.475Z,13.78
2018-09-11T05:05:19.603Z,10.80
2018-09-11T05:06:23.673Z,18.65
2018-09-11T05:07:28.087Z,18.27
2018-09-11T05:08:32.125Z,13.18
2018-09-11T05:09:36.175Z,16.30
2018-09-11T05:10:40.230Z,14.05
2018-09-11T05:11:44.419Z,17.02
2018-09-11T05:12:49.163Z,14.47
2018-09-11T05:13:53.203Z,24.30
2018-09-11T05:14:57.316Z,19.12
2018-09-11T05:16:01.420Z,16.20
2018-09-11T05:17:06.651Z,20.90
2018-09-11T05:18:11.024Z,18.12
2018-09-11T05:19:15.684Z,25.60
2018-09-11T05:20:19.760Z,23.00
2018-09-11T05:21:23.804Z,26.75
2018-09-11T05:22:30.106Z,13.40
2018-09-11T05:23:34.176Z,21.42
2018-09-11T05:24:38.280Z,15.45
2018-09-11T05:25:42.464Z,16.37
2018-09-11T05:26:46.557Z,9.65
2018-09-11T05:27:51.631Z,19.32
2018-09-11T05:28:55.753Z,17.48
2018-09-11T05:30:00.585Z,12.78
2018-09-11T05:31:09.425Z,10.60
2018-09-11T05:32:14.381Z,20.72
2018-09-11T05:33:19.029Z,24.30
2018-09-11T05:34:23.162Z,14.85
2018-09-11T05:35:27.429Z,12.03
2018-09-11T05:36:31.607Z,13.53
2018-09-11T05:37:38.229Z,23.05
2018-09-11T05:38:44.574Z,12.30
2018-09-11T05:39:50.302Z,13.68
2018-09-11T05:40:56.585Z,11.97
2018-09-11T05:42:01.620Z,11.68
2018-09-11T05:43:05.843Z,17.25
2018-09-11T05:44:09.961Z,14.47
2018-09-11T05:45:14.766Z,11.22
2018-09-11T05:46:20.171Z,13.32
2018-09-11T05:47:25.580Z,14.98
2018-09-11T05:48:30.288Z,43.40
2018-09-11T05:49:34.676Z,71.67
2018-09-11T05:50:40.579Z,74.90
2018-09-11T05:51:44.811Z,24.87
2018-09-11T05:52:48.998Z,29.82
2018-09-11T05:53:54.541Z,23.67
2018-09-11T05:55:02.103Z,23.87
2018-09-11T05:56:07.654Z,20.57
2018-09-11T05:57:49.469Z,15.90
2018-09-11T05:58:55.047Z,12.13
2018-09-11T05:59:59.924Z,12.93
2018-09-11T06:01:09.207Z,13.10
2018-09-11T06:02:26.084Z,16.30
2018-09-11T06:03:30.657Z,20.37
2018-09-11T06:04:34.747Z,17.48
2018-09-11T06:05:39.915Z,16.77
2018-09-11T06:06:43.944Z,11.25
2018-09-11T06:09:52.963Z,13.73
2018-09-11T06:11:05.425Z,10.75
2018-09-11T06:12:09.739Z,13.83
2018-09-11T06:13:14.047Z,13.98
2018-09-11T06:14:18.803Z,14.18
2018-09-11T06:15:29.490Z,22.42
2018-09-11T06:16:39.914Z,23.83
2018-09-11T06:17:47.604Z,14.05
2018-09-11T06:18:53.238Z,12.35
2018-09-11T06:22:03.054Z,13.08
2018-09-11T06:23:08.919Z,7.87
2018-09-11T06:24:13.576Z,13.72
2018-09-11T06:25:24.187Z,14.05
2018-09-11T06:26:28.746Z,24.65
2018-09-11T06:27:34.205Z,19.25
2018-09-11T06:28:39.055Z,14.47
2018-09-11T06:29:43.599Z,9.58
2018-09-11T06:30:48.203Z,9.75
2018-09-11T06:31:52.778Z,14.10
2018-09-11T06:33:05.396Z,10.88
2018-09-11T06:34:15.067Z,12.35
2018-09-11T06:35:20.518Z,14.40
2018-09-11T06:36:30.189Z,10.13
2018-09-11T06:37:34.501Z,12.58
2018-09-11T06:38:51.965Z,15.98
2018-09-11T06:42:39.237Z,8.73
2018-09-11T06:43:51.743Z,9.68
2018-09-11T06:45:03.270Z,22.40
2018-09-11T06:46:08.115Z,15.28
2018-09-11T06:47:12.963Z,17.67
2018-09-11T06:48:25.806Z,16.57
2018-09-11T06:49:36.634Z,11.08
2018-09-11T06:50:42.191Z,16.35
2018-09-11T06:51:46.592Z,8.03
2018-09-11T06:52:52.110Z,20.82
2018-09-11T06:54:04.368Z,17.73
2018-09-11T07:00:56.259Z,21.33
2018-09-11T07:02:00.882Z,8.68
2018-09-11T07:03:05.599Z,9.58
2018-09-11T07:04:09.987Z,7.67
2018-09-11T07:05:14.835Z,14.55
2018-09-11T07:06:45.330Z,13.50
2018-09-11T07:07:51.086Z,12.20
2018-09-11T07:08:56.401Z,16.25
2018-09-11T07:10:01.110Z,11.80
2018-09-11T07:11:12.103Z,9.45
2018-09-11T07:12:16.785Z,13.93
2018-09-11T07:13:21.367Z,9.90
2018-09-11T07:14:25.927Z,10.55
2018-09-11T07:15:30.725Z,17.10
2018-09-11T07:18:09.275Z,11.73
2018-09-11T07:19:18.249Z,8.68
2018-09-11T07:20:32.485Z,12.70
2018-09-11T07:21:49.584Z,15.25
2018-09-11T07:22:54.677Z,16.73
2018-09-11T07:23:59.829Z,23.92
2018-09-11T07:25:04.446Z,13.08
2018-09-11T07:26:11.173Z,11.28
2018-09-11T07:27:15.774Z,20.57
2018-09-11T07:28:20.203Z,13.70
2018-09-11T07:29:24.979Z,14.87
2018-09-11T07:30:29.335Z,12.40
2018-09-11T07:31:36.649Z,12.93
2018-09-11T07:32:41.796Z,21.65
2018-09-11T07:33:46.228Z,9.45
2018-09-11T07:34:50.705Z,12.68
2018-09-11T07:36:00.345Z,10.80
2018-09-11T07:37:05.090Z,14.03
2018-09-11T07:38:09.277Z,15.35
2018-09-11T07:39:14.204Z,16.20
2018-09-11T07:40:18.936Z,10.20
2018-09-11T07:41:53.820Z,15.35
2018-09-11T07:42:58.213Z,13.38
2018-09-11T07:44:03.647Z,13.75
2018-09-11T07:45:08.156Z,15.68
2018-09-11T07:46:13.797Z,7.12
2018-09-11T07:47:22.626Z,11.57
2018-09-11T07:48:27.299Z,8.70
2018-09-11T07:49:31.765Z,12.55
2018-09-11T07:50:37.179Z,11.55
2018-09-11T07:51:41.946Z,9.10
2018-09-11T07:52:47.279Z,11.48
2018-09-11T07:53:53.500Z,11.15
2018-09-11T07:54:59.098Z,21.12
2018-09-11T07:56:03.782Z,11.28
2018-09-11T07:57:10.965Z,10.38
2018-09-11T07:59:30.554Z,8.65
2018-09-11T08:00:35.124Z,5.10
2018-09-11T08:01:40.216Z,8.48
2018-09-11T08:02:44.686Z,20.00
2018-09-11T08:03:51.187Z,22.00
2018-09-11T08:04:56.089Z,4.45
2018-09-11T08:06:00.831Z,7.83
2018-09-11T08:07:05.379Z,6.00
2018-09-11T08:08:10.907Z,4.85
2018-09-11T08:09:15.282Z,10.13
2018-09-11T08:10:19.662Z,6.55
2018-09-11T08:11:24.321Z,8.68
2018-09-11T08:12:28.808Z,12.18
2018-09-11T08:13:33.623Z,6.08
2018-09-11T08:14:38.238Z,9.20
2018-09-11T08:15:42.579Z,8.08
2018-09-11T08:16:47.858Z,7.22
2018-09-11T08:17:52.442Z,5.25
2018-09-11T08:18:56.895Z,10.68
2018-09-11T08:20:01.527Z,8.38
2018-09-11T08:21:08.222Z,5.50
2018-09-11T08:22:13.967Z,6.08
2018-09-11T08:23:19.766Z,12.45
2018-09-11T08:24:29.244Z,8.83
2018-09-11T08:25:33.796Z,23.18
2018-09-11T08:26:38.095Z,15.13
2018-09-11T08:27:43.002Z,12.37
2018-09-11T08:28:52.268Z,12.73
2018-09-11T08:29:57.259Z,7.67
2018-09-11T08:31:01.724Z,9.60
2018-09-11T08:32:08.840Z,8.88
2018-09-11T08:33:15.370Z,8.80
2018-09-11T08:34:20.302Z,13.13
2018-09-11T08:35:25.298Z,13.62
2018-09-11T08:36:30.315Z,7.75
2018-09-11T08:37:34.828Z,14.10
2018-09-11T08:38:40.389Z,10.95
2018-09-11T08:39:44.743Z,7.45
2018-09-11T08:40:51.234Z,8.30
2018-09-11T08:41:56.380Z,9.00
2018-09-11T08:43:08.876Z,7.78
2018-09-11T08:44:15.187Z,12.23
2018-09-11T08:45:21.314Z,9.98
2018-09-11T08:46:25.862Z,14.05
2018-09-11T08:47:30.323Z,6.17
2018-09-11T08:48:34.817Z,4.75
2018-09-11T08:49:39.771Z,8.53
2018-09-11T08:50:44.736Z,12.07
2018-09-11T08:51:49.400Z,9.13
2018-09-11T08:52:53.824Z,8.25
2018-09-11T08:53:58.627Z,7.00
2018-09-11T08:55:06.638Z,6.80
2018-09-11T08:56:17.449Z,5.95
2018-09-11T08:57:24.023Z,6.45
2018-09-11T08:58:52.736Z,5.97
2018-09-11T08:59:58.096Z,9.70
2018-09-11T09:01:03.111Z,5.35
2018-09-11T09:02:08.121Z,7.37
2018-09-11T09:03:12.552Z,7.33
2018-09-11T09:04:32.043Z,7.20
2018-09-11T09:05:37.203Z,6.30
2018-09-11T09:06:43.575Z,10.10
2018-09-11T09:07:48.763Z,9.28
2018-09-11T09:08:53.352Z,6.53
2018-09-11T09:09:57.923Z,6.70
2018-09-11T09:11:03.273Z,4.75
2018-09-11T09:12:12.413Z,6.65
2018-09-11T09:13:18.842Z,6.72
2018-09-11T09:14:26.681Z,11.80
2018-09-11T09:15:31.941Z,7.40
2018-09-11T09:16:36.503Z,5.90
2018-09-11T09:17:40.865Z,7.25
2018-09-11T09:18:47.319Z,9.40
2018-09-11T09:19:54.564Z,5.53
2018-09-11T09:21:05.810Z,5.08
2018-09-11T09:22:14.868Z,5.35
2018-09-11T09:23:22.416Z,5.62
2018-09-11T09:24:28.482Z,7.78
2018-09-11T09:25:34.319Z,6.97
2018-09-11T09:26:41.037Z,5.35
2018-09-11T09:27:48.511Z,8.85
2018-09-11T09:28:57.696Z,5.28
2018-09-11T09:30:07.503Z,18.52
2018-09-11T09:31:14.479Z,15.20
2018-09-11T09:32:44.085Z,5.50
2018-09-11T09:34:28.851Z,4.50
2018-09-11T09:35:43.251Z,7.22
2018-09-11T09:36:48.097Z,7.30
2018-09-11T09:37:53.756Z,8.85
2018-09-11T09:39:02.008Z,4.75
2018-09-11T09:40:14.759Z,5.53
2018-09-11T09:41:21.342Z,9.53
2018-09-11T09:42:26.711Z,10.78
2018-09-11T09:43:31.698Z,6.55
2018-09-11T09:44:36.674Z,10.93
2018-09-11T09:45:41.706Z,7.65
2018-09-11T09:46:46.121Z,4.40
2018-09-11T09:47:51.184Z,3.85
2018-09-11T09:48:57.800Z,10.32
2018-09-11T09:50:02.191Z,6.37
2018-09-11T09:51:07.000Z,10.18
2018-09-11T09:52:16.334Z,5.30
2018-09-11T09:53:22.622Z,9.73
2018-09-11T09:54:27.146Z,6.40
2018-09-11T09:55:32.380Z,4.72
2018-09-11T09:56:39.033Z,5.12
2018-09-11T09:57:50.015Z,7.05
2018-09-11T09:58:59.322Z,9.98
2018-09-11T10:00:07.158Z,6.08
2018-09-11T10:01:17.023Z,8.33
2018-09-11T10:02:23.104Z,16.55
2018-09-11T10:03:34.631Z,6.10
2018-09-11T10:04:41.980Z,9.18
2018-09-11T10:06:09.081Z,8.83
2018-09-11T10:07:15.079Z,5.17
2018-09-11T10:08:19.290Z,6.50
2018-09-11T10:09:24.648Z,5.25
2018-09-11T10:10:30.607Z,6.20
2018-09-11T10:11:37.616Z,5.22
2018-09-11T10:12:42.193Z,11.53
2018-09-11T10:13:49.296Z,6.50
2018-09-11T10:14:54.380Z,11.65
2018-09-11T10:16:00.399Z,11.22
2018-09-11T10:17:07.970Z,8.18
2018-09-11T10:18:12.850Z,5.53
2018-09-11T10:19:19.116Z,7.28
2018-09-11T10:20:24.719Z,9.48
2018-09-11T10:21:30.781Z,5.75
2018-09-11T10:22:37.578Z,6.10
2018-09-11T10:23:44.631Z,5.95
2018-09-11T10:24:56.687Z,8.80
2018-09-11T10:26:04.717Z,6.45
2018-09-11T10:27:19.715Z,6.00
2018-09-11T10:28:33.247Z,7.35
2018-09-11T10:29:54.422Z,9.53
2018-09-11T10:31:05.929Z,11.22
2018-09-11T10:32:11.657Z,5.92
2018-09-11T10:33:18.061Z,11.03
2018-09-11T10:34:30.405Z,5.85
2018-09-11T10:35:41.625Z,5.92
2018-09-11T10:36:56.809Z,9.10
2018-09-11T10:38:08.572Z,10.43
2018-09-11T10:39:16.831Z,7.50
2018-09-11T10:40:22.930Z,13.45
2018-09-11T10:41:32.325Z,5.55
2018-09-11T10:42:58.776Z,10.10
2018-09-11T10:44:19.686Z,5.15
2018-09-11T10:48:52.638Z,6.10
2018-09-11T10:50:00.352Z,8.30
2018-09-11T10:51:06.810Z,9.58
2018-09-11T10:52:13.552Z,12.60
2018-09-11T10:53:22.228Z,7.65
2018-09-11T10:54:26.565Z,6.17
2018-09-11T10:55:33.337Z,6.22
2018-09-11T10:56:38.850Z,9.05
2018-09-11T10:57:43.307Z,6.75
2018-09-11T10:58:48.306Z,4.83
2018-09-11T10:59:52.378Z,5.28
2018-09-11T11:02:08.772Z,4.92
2018-09-11T11:03:15.229Z,9.35
2018-09-11T11:04:20.818Z,10.05
2018-09-11T11:05:27.813Z,13.53
2018-09-11T11:06:33.231Z,5.72
2018-09-11T11:07:38.470Z,7.80
2018-09-11T11:08:45.186Z,13.55
2018-09-11T11:09:51.365Z,6.78
2018-09-11T11:10:59.532Z,6.25
2018-09-11T11:12:05.770Z,11.53
2018-09-11T11:13:10.103Z,8.85
2018-09-11T11:14:16.242Z,10.10
2018-09-11T11:15:21.416Z,12.90
2018-09-11T11:16:27.851Z,7.05
2018-09-11T11:17:33.255Z,7.37
2018-09-11T11:18:37.630Z,6.83
2018-09-11T11:19:42.715Z,4.28
2018-09-11T11:20:50.101Z,16.60
2018-09-11T11:21:57.157Z,13.00
2018-09-11T11:23:04.254Z,9.70
2018-09-11T11:24:16.396Z,9.53
2018-09-11T11:25:22.355Z,8.98
2018-09-11T11:26:28.317Z,7.58
2018-09-11T11:27:34.553Z,8.83
2018-09-11T11:32:07.193Z,8.90
2018-09-11T11:33:15.324Z,7.47
2018-09-11T11:34:23.547Z,7.75
2018-09-11T11:35:31.347Z,5.80
2018-09-11T11:36:36.389Z,10.40
2018-09-11T11:37:42.643Z,9.35
2018-09-11T11:38:50.940Z,9.08
2018-09-11T11:40:01.144Z,4.95
2018-09-11T11:41:08.247Z,5.97
2018-09-11T11:42:13.499Z,9.45
2018-09-11T11:43:23.349Z,5.50
2018-09-11T11:44:31.302Z,6.70
2018-09-11T11:45:43.185Z,8.78
2018-09-11T11:46:49.930Z,7.80
2018-09-11T11:47:57.460Z,8.10
2018-09-11T11:49:03.211Z,4.97
2018-09-11T11:50:08.136Z,6.35
2018-09-11T11:51:13.623Z,6.47
2018-09-11T11:52:17.991Z,7.47
2018-09-11T11:53:23.855Z,28.02
2018-09-11T11:54:31.775Z,7.25
2018-09-11T11:55:37.230Z,11.28
2018-09-11T11:56:41.661Z,9.10
2018-09-11T11:57:47.701Z,13.28
2018-09-11T11:58:54.197Z,10.10
2018-09-11T12:00:02.919Z,10.53
2018-09-11T12:01:13.983Z,9.08
2018-09-11T12:02:27.585Z,7.25
2018-09-11T12:03:40.234Z,5.10
2018-09-11T12:04:46.256Z,8.83
2018-09-11T12:05:52.488Z,7.90
2018-09-11T12:07:00.847Z,8.30
2018-09-11T12:08:06.604Z,5.90
2018-09-11T12:09:13.332Z,10.38
2018-09-11T12:10:17.757Z,9.98
2018-09-11T12:11:22.663Z,7.00
2018-09-11T12:12:35.213Z,11.05
2018-09-11T12:13:45.196Z,6.28
2018-09-11T12:14:55.180Z,5.80
2018-09-11T12:16:12.327Z,11.03
2018-09-11T12:17:21.858Z,10.95
2018-09-11T12:18:35.358Z,11.63
2018-09-11T12:19:42.291Z,7.30
2018-09-11T12:20:51.555Z,7.10
2018-09-11T12:22:02.301Z,8.08
2018-09-11T12:23:10.230Z,8.33
2018-09-11T12:24:17.083Z,7.80
2018-09-11T12:25:24.705Z,8.78
2018-09-11T12:26:30.317Z,14.55
2018-09-11T12:27:36.695Z,7.35
2018-09-11T12:28:42.436Z,10.95
2018-09-11T12:29:46.750Z,5.92
2018-09-11T12:30:52.321Z,8.00
2018-09-11T12:31:56.400Z,6.28
2018-09-11T12:33:01.500Z,16.42
2018-09-11T12:34:05.764Z,6.10
2018-09-11T12:35:10.286Z,6.78
2018-09-11T12:36:14.458Z,21.15
2018-09-11T12:37:18.949Z,6.83
2018-09-11T12:38:23.075Z,7.42
2018-09-11T12:39:27.142Z,8.43
2018-09-11T12:40:31.324Z,6.15
2018-09-11T12:41:36.283Z,9.30
2018-09-11T12:42:40.738Z,5.58
2018-09-11T12:43:45.078Z,6.17
2018-09-11T12:44:49.215Z,10.43
2018-09-11T12:45:53.428Z,5.92
2018-09-11T12:46:58.701Z,9.55
2018-09-11T12:48:07.860Z,7.80
2018-09-11T12:49:11.707Z,12.55
2018-09-11T12:50:17.480Z,5.83
2018-09-11T12:51:25.165Z,5.05
2018-09-11T12:52:30.031Z,6.03
2018-09-11T12:53:36.102Z,6.22
2018-09-11T12:54:41.202Z,6.35
2018-09-11T12:55:45.391Z,9.90
2018-09-11T12:56:52.587Z,4.25
2018-09-11T12:57:58.403Z,8.68
2018-09-11T12:59:02.559Z,8.30
2018-09-11T13:00:08.191Z,6.15
2018-09-11T13:01:12.626Z,7.30
2018-09-11T13:02:18.210Z,3.95
2018-09-11T13:03:22.717Z,13.18
2018-09-11T13:04:28.176Z,4.78
2018-09-11T13:05:35.699Z,10.23
2018-09-11T13:06:42.678Z,4.80
2018-09-11T13:07:47.648Z,5.72
2018-09-11T13:08:53.178Z,9.45
2018-09-11T13:09:58.769Z,10.45
2018-09-11T13:11:06.412Z,8.98
2018-09-11T13:12:10.523Z,9.40
2018-09-11T13:13:18.674Z,7.28
2018-09-11T13:14:24.084Z,12.43
2018-09-11T13:15:29.437Z,7.75
2018-09-11T13:16:34.650Z,13.70
2018-09-11T13:17:40.643Z,4.45
2018-09-11T13:18:47.471Z,12.47
2018-09-11T13:19:54.748Z,7.90
2018-09-11T13:21:00.945Z,9.13
2018-09-11T13:22:07.466Z,11.65
2018-09-11T13:23:11.810Z,6.33
2018-09-11T13:24:20.290Z,8.38
2018-09-11T13:25:24.542Z,9.25
2018-09-11T13:26:29.324Z,5.72
2018-09-11T13:27:33.636Z,7.28
2018-09-11T13:28:37.792Z,7.00
2018-09-11T13:29:42.815Z,6.00
2018-09-11T13:30:46.886Z,9.85
2018-09-11T13:31:51.898Z,5.28
2018-09-11T13:32:56.777Z,6.55
2018-09-11T13:34:00.986Z,6.15
2018-09-11T13:35:05.188Z,7.83
2018-09-11T13:36:10.039Z,5.92
2018-09-11T13:37:14.158Z,9.45
2018-09-11T13:38:19.620Z,5.15
2018-09-11T13:39:25.799Z,6.10
2018-09-11T13:40:30.303Z,11.57
2018-09-11T13:41:37.497Z,7.22
2018-09-11T13:42:44.210Z,7.50
2018-09-11T13:43:53.467Z,6.00
2018-09-11T13:44:58.138Z,5.05
2018-09-11T13:46:07.382Z,6.25
2018-09-11T13:47:12.646Z,9.58
2018-09-11T13:48:17.200Z,7.40
2018-09-11T13:49:28.336Z,6.20
2018-09-11T13:50:36.668Z,8.58
2018-09-11T13:51:43.095Z,10.03
2018-09-11T13:52:48.656Z,8.10
2018-09-11T13:53:54.171Z,8.38
2018-09-11T13:54:58.815Z,8.05
2018-09-11T13:56:03.290Z,7.12
2018-09-11T13:57:10.382Z,7.87
2018-09-11T13:58:18.102Z,6.35
2018-09-11T13:59:24.746Z,7.28
2018-09-11T14:00:29.284Z,12.65
2018-09-11T14:01:34.766Z,6.37
2018-09-11T14:02:42.403Z,11.53
2018-09-11T14:03:48.264Z,8.65
2018-09-11T14:04:55.028Z,7.83
2018-09-11T14:06:00.695Z,9.18
2018-09-11T14:07:05.299Z,14.58
2018-09-11T14:08:10.108Z,9.75
2018-09-11T14:09:18.877Z,6.92
2018-09-11T14:10:25.263Z,13.90
2018-09-11T14:11:31.087Z,5.28
2018-09-11T14:12:35.823Z,11.75
2018-09-11T14:13:40.415Z,5.00
2018-09-11T14:14:45.020Z,8.15
2018-09-11T14:15:50.392Z,6.10
2018-09-11T14:16:54.767Z,7.15
2018-09-11T14:17:59.169Z,10.08
2018-09-11T14:19:08.138Z,7.45
2018-09-11T14:20:12.447Z,6.40
2018-09-11T14:21:20.572Z,6.97
2018-09-11T14:22:24.692Z,7.40
2018-09-11T14:23:29.849Z,11.18
2018-09-11T14:24:37.571Z,6.35
2018-09-11T14:25:43.923Z,14.20
2018-09-11T14:26:49.188Z,8.85
2018-09-11T14:27:54.520Z,9.85
2018-09-11T14:28:58.941Z,5.37
2018-09-11T14:30:04.396Z,6.53
2018-09-11T14:31:08.578Z,11.33
2018-09-11T14:32:17.039Z,6.08
2018-09-11T14:33:27.493Z,8.38
2018-09-11T14:34:34.309Z,5.37
2018-09-11T14:35:39.237Z,6.05
2018-09-11T14:36:43.523Z,7.70
2018-09-11T14:37:48.048Z,6.35
2018-09-11T14:38:53.429Z,7.90
2018-09-11T14:40:00.084Z,5.78
2018-09-11T14:41:09.568Z,8.25
2018-09-11T14:42:15.471Z,8.10
2018-09-11T14:43:24.347Z,7.10
2018-09-11T14:44:31.654Z,7.90
2018-09-11T14:45:36.583Z,7.37
2018-09-11T14:46:41.040Z,7.42